Time;durP1;ratioP1;P1;durP2;ratioP2;P2;SDS_P1;SDS_P2;PMS_P1;PMS_P2;Temp;Humidity;BMP_temperature;BMP_pressure;BME280_temperature;BME280_humidity;BME280_pressure;Samples;Min_cycle;Max_cycle;Signal;HPM_P1;HPM_P2
2024/01/03 00:00:33;;;;;;;14.88;3.78;;;11.70;76.80;;;;;;5011143;28;20038;-75
2024/01/03 00:03:00;;;;;;;15.02;3.15;;;11.60;76.70;;;;;;5012914;28;20468;-76
2024/01/03 00:05:41;;;;;;;11.65;2.63;;;11.60;76.70;;;;;;5013547;28;20128;-75
2024/01/03 00:08:20;;;;;;;15.55;3.30;;;11.60;76.80;;;;;;5017459;28;20033;-75
2024/01/03 00:10:52;;;;;;;9.25;2.08;;;11.60;76.80;;;;;;5017617;28;20623;-75
2024/01/03 00:13:33;;;;;;;16.60;3.72;;;11.60;76.80;;;;;;5011572;28;20025;-75
2024/01/03 00:15:59;;;;;;;8.40;2.65;;;11.60;76.90;;;;;;5001755;28;20033;-74
2024/01/03 00:18:34;;;;;;;9.20;2.63;;;11.50;76.70;;;;;;5008547;28;20030;-75
2024/01/03 00:21:00;;;;;;;10.63;2.55;;;11.50;76.80;;;;;;5011563;28;20030;-76
2024/01/03 00:23:37;;;;;;;8.15;2.25;;;11.50;76.80;;;;;;5017464;28;20022;-76
2024/01/03 00:26:09;;;;;;;6.95;1.92;;;11.50;76.90;;;;;;5019554;28;20083;-77
2024/01/03 00:28:35;;;;;;;9.50;1.90;;;11.50;76.80;;;;;;5018467;28;20083;-76
2024/01/03 00:31:01;;;;;;;7.45;2.08;;;11.50;76.80;;;;;;5027145;28;20026;-78
2024/01/03 00:33:28;;;;;;;6.93;2.80;;;11.50;76.80;;;;;;5015211;28;20419;-78
2024/01/03 00:35:56;;;;;;;7.78;1.85;;;11.50;76.90;;;;;;5012904;28;20396;-78
2024/01/03 00:38:22;;;;;;;8.50;2.63;;;11.50;76.90;;;;;;5011299;28;20050;-77
2024/01/03 00:40:48;;;;;;;7.82;1.92;;;11.50;76.90;;;;;;5009508;28;20045;-77
2024/01/03 00:43:14;;;;;;;8.15;1.80;;;11.50;76.90;;;;;;5035447;28;20033;-75
2024/01/03 00:45:41;;;;;;;8.05;2.28;;;11.40;76.70;;;;;;5032443;28;20044;-75
2024/01/03 00:48:07;;;;;;;6.25;1.50;;;11.50;77.00;;;;;;5022847;28;20026;-75
2024/01/03 00:50:33;;;;;;;6.57;1.67;;;11.40;76.80;;;;;;5046486;28;20088;-74
2024/01/03 00:53:02;;;;;;;9.98;2.08;;;11.40;76.80;;;;;;5025529;28;20115;-76
2024/01/03 00:55:28;;;;;;;5.63;1.40;;;11.40;76.80;;;;;;5035872;28;20376;-76
2024/01/03 00:57:55;;;;;;;6.57;2.55;;;11.40;76.90;;;;;;5051276;28;20064;-77
2024/01/03 01:00:22;;;;;;;6.55;1.95;;;11.40;76.90;;;;;;5021230;28;20080;-75
2024/01/03 01:02:50;;;;;;;11.55;2.88;;;11.40;76.90;;;;;;5030825;28;20036;-75
2024/01/03 01:05:23;;;;;;;7.43;1.90;;;11.40;76.90;;;;;;5019818;28;20033;-75
2024/01/03 01:07:49;;;;;;;9.05;2.15;;;11.30;76.80;;;;;;5019361;28;20026;-77
2024/01/03 01:10:15;;;;;;;8.55;2.35;;;11.40;77.00;;;;;;5014554;28;20371;-76
2024/01/03 01:12:41;;;;;;;7.65;2.78;;;11.40;77.00;;;;;;5014413;28;20049;-76
2024/01/03 01:15:07;;;;;;;6.43;2.33;;;11.40;77.00;;;;;;5014491;28;20040;-76
2024/01/03 01:17:33;;;;;;;10.60;2.00;;;11.40;77.10;;;;;;5030945;28;20590;-77
2024/01/03 01:20:00;;;;;;;11.80;2.65;;;11.40;77.10;;;;;;5021675;28;20026;-75
2024/01/03 01:22:26;;;;;;;11.80;2.30;;;11.40;77.10;;;;;;5023415;28;20037;-76
2024/01/03 01:24:52;;;;;;;17.30;3.83;;;11.40;77.10;;;;;;5016409;28;20026;-76
2024/01/03 01:27:18;;;;;;;10.88;2.42;;;11.40;77.10;;;;;;5034556;28;20107;-76
2024/01/03 01:29:44;;;;;;;8.98;2.75;;;11.40;77.20;;;;;;5031334;28;20492;-77
2024/01/03 01:32:10;;;;;;;12.93;2.83;;;11.40;77.20;;;;;;5011051;28;20087;-76
2024/01/03 01:34:36;;;;;;;9.27;2.25;;;11.40;77.20;;;;;;5015442;28;20017;-76
2024/01/03 01:37:02;;;;;;;9.15;2.55;;;11.40;77.20;;;;;;5028566;28;20095;-76
2024/01/03 01:39:28;;;;;;;7.75;2.45;;;11.40;77.20;;;;;;5011688;28;20481;-76
2024/01/03 01:41:54;;;;;;;9.75;2.20;;;11.40;77.20;;;;;;5029572;28;20047;-75
2024/01/03 01:44:20;;;;;;;11.25;2.50;;;11.40;77.20;;;;;;5026541;28;20471;-75
2024/01/03 01:46:46;;;;;;;7.57;2.28;;;11.40;77.20;;;;;;5006990;28;20044;-76
2024/01/03 01:49:18;;;;;;;11.40;2.22;;;11.40;77.30;;;;;;5016137;28;20087;-75
2024/01/03 01:51:45;;;;;;;8.98;2.58;;;11.30;77.10;;;;;;5026911;28;20296;-76
2024/01/03 01:54:12;;;;;;;11.95;2.78;;;11.30;77.20;;;;;;5011264;28;20037;-75
2024/01/03 01:56:39;;;;;;;7.88;2.90;;;11.30;77.20;;;;;;5029101;28;20036;-76
2024/01/03 01:59:07;;;;;;;8.68;2.33;;;11.30;77.20;;;;;;5012849;28;20402;-75
2024/01/03 02:01:36;;;;;;;9.38;2.08;;;11.30;77.20;;;;;;5006282;28;20037;-75
2024/01/03 02:04:06;;;;;;;7.97;2.10;;;11.30;77.30;;;;;;5024732;28;20044;-75
2024/01/03 02:06:33;;;;;;;10.82;2.40;;;11.30;77.30;;;;;;5011536;28;20056;-76
2024/01/03 02:09:00;;;;;;;10.32;2.17;;;11.30;77.30;;;;;;5009245;28;20060;-75
2024/01/03 02:11:26;;;;;;;11.40;2.70;;;11.30;77.30;;;;;;5022022;28;20814;-75
2024/01/03 02:13:52;;;;;;;10.98;2.58;;;11.30;77.40;;;;;;5012218;28;20033;-75
2024/01/03 02:16:18;;;;;;;10.43;1.90;;;11.30;77.40;;;;;;5015847;28;20339;-76
2024/01/03 02:18:46;;;;;;;9.75;2.10;;;11.30;77.40;;;;;;5026660;28;20061;-75
2024/01/03 02:21:16;;;;;;;8.15;1.98;;;11.30;77.40;;;;;;5004242;28;20437;-75
2024/01/03 02:23:45;;;;;;;9.43;3.17;;;11.30;77.40;;;;;;5014274;28;20088;-76
2024/01/03 02:26:16;;;;;;;9.27;2.10;;;11.30;77.30;;;;;;5003708;28;20073;-75
2024/01/03 02:28:42;;;;;;;8.57;2.28;;;11.30;77.40;;;;;;5017934;28;20025;-75
2024/01/03 02:31:07;;;;;;;6.75;2.55;;;11.30;77.40;;;;;;5010656;28;20084;-75
2024/01/03 02:33:33;;;;;;;7.78;2.30;;;11.30;77.40;;;;;;5016411;28;20120;-75
2024/01/03 02:35:59;;;;;;;9.77;1.90;;;11.30;77.40;;;;;;4997833;28;20485;-76
2024/01/03 02:38:25;;;;;;;8.65;1.85;;;11.30;77.40;;;;;;5035675;28;20131;-74
2024/01/03 02:40:51;;;;;;;7.50;1.85;;;11.30;77.40;;;;;;5032874;28;20036;-74
2024/01/03 02:43:17;;;;;;;9.52;2.22;;;11.30;77.40;;;;;;5015400;28;20036;-75
2024/01/03 02:45:46;;;;;;;7.25;1.35;;;11.30;77.40;;;;;;5035497;22;20057;-74
2024/01/03 02:48:13;;;;;;;9.20;2.08;;;11.20;77.30;;;;;;5041425;28;20833;-77
2024/01/03 02:50:43;;;;;;;9.27;1.73;;;11.20;77.30;;;;;;5038445;28;20029;-73
2024/01/03 02:53:10;;;;;;;7.47;2.17;;;11.20;77.30;;;;;;5037671;28;20395;-77
2024/01/03 02:55:36;;;;;;;4.88;1.27;;;11.20;77.30;;;;;;5043722;28;20488;-79
2024/01/03 02:58:03;;;;;;;9.70;1.60;;;11.20;77.30;;;;;;5044270;28;20047;-78
2024/01/03 03:00:28;;;;;;;6.40;1.92;;;11.20;77.40;;;;;;5034107;28;20417;-77
2024/01/03 03:02:54;;;;;;;12.05;1.70;;;11.20;77.30;;;;;;5031874;28;20022;-73
2024/01/03 03:05:20;;;;;;;5.60;1.23;;;11.20;77.30;;;;;;5011563;28;20056;-80
2024/01/03 03:07:46;;;;;;;5.65;1.80;;;11.20;77.30;;;;;;5015465;28;20393;-78
2024/01/03 03:10:14;;;;;;;7.13;1.55;;;11.20;77.40;;;;;;5013142;28;20044;-75
2024/01/03 03:12:40;;;;;;;6.82;1.60;;;11.20;77.40;;;;;;5008209;28;20407;-75
2024/01/03 03:15:07;;;;;;;6.70;1.77;;;11.20;77.30;;;;;;5012358;28;20038;-76
2024/01/03 03:17:33;;;;;;;5.07;1.23;;;11.20;77.30;;;;;;5014838;28;20083;-78
2024/01/03 03:19:59;;;;;;;8.73;1.88;;;11.20;77.30;;;;;;5018719;28;20030;-76
2024/01/03 03:22:25;;;;;;;7.75;2.08;;;11.20;77.30;;;;;;5011968;28;20141;-74
2024/01/03 03:24:51;;;;;;;8.73;1.70;;;11.20;77.30;;;;;;5017834;28;20089;-74
2024/01/03 03:27:17;;;;;;;8.38;2.38;;;11.20;77.30;;;;;;5016962;28;20563;-73
2024/01/03 03:29:43;;;;;;;5.63;1.30;;;11.20;77.30;;;;;;5009025;28;20342;-76
2024/01/03 03:32:10;;;;;;;9.55;1.92;;;11.20;77.30;;;;;;5006938;28;20428;-74
2024/01/03 03:34:36;;;;;;;12.60;2.33;;;11.20;77.30;;;;;;5012881;28;20032;-74
2024/01/03 03:37:03;;;;;;;8.48;2.08;;;11.20;77.30;;;;;;5022060;28;20149;-77
2024/01/03 03:39:29;;;;;;;7.90;1.23;;;11.10;77.10;;;;;;5019728;28;20034;-77
2024/01/03 03:41:55;;;;;;;5.88;1.73;;;11.10;77.10;;;;;;5012531;28;20040;-74
2024/01/03 03:44:21;;;;;;;10.95;1.60;;;11.20;77.30;;;;;;5017574;28;20029;-73
2024/01/03 03:46:47;;;;;;;4.38;1.42;;;11.10;77.10;;;;;;5019140;28;20374;-79
2024/01/03 03:49:14;;;;;;;6.20;1.58;;;11.10;77.10;;;;;;5018068;28;20030;-75
2024/01/03 03:51:40;;;;;;;6.60;1.55;;;11.10;77.10;;;;;;5012172;28;20037;-76
2024/01/03 03:54:06;;;;;;;6.10;1.77;;;11.10;77.20;;;;;;5009451;28;20042;-74
2024/01/03 03:56:32;;;;;;;11.50;2.20;;;11.10;77.10;;;;;;5009687;28;20445;-80
2024/01/03 03:58:58;;;;;;;8.98;1.52;;;11.10;77.10;;;;;;5015869;28;20045;-74
2024/01/03 04:01:24;;;;;;;5.50;1.58;;;11.10;77.20;;;;;;5004011;28;20038;-76
2024/01/03 04:03:50;;;;;;;9.98;1.40;;;11.10;77.20;;;;;;5015902;28;20025;-74
2024/01/03 04:06:17;;;;;;;7.13;1.80;;;11.10;77.20;;;;;;5008470;28;20484;-76
2024/01/03 04:08:44;;;;;;;7.63;1.70;;;11.00;77.00;;;;;;5011760;28;20026;-77
2024/01/03 04:11:11;;;;;;;6.97;2.38;;;11.00;77.00;;;;;;5009811;28;20033;-76
2024/01/03 04:13:38;;;;;;;8.05;2.05;;;11.10;77.20;;;;;;5016252;28;20050;-74
2024/01/03 04:16:08;;;;;;;9.30;2.03;;;11.10;77.80;;;;;;5012236;28;20044;-75
2024/01/03 04:18:34;;;;;;;12.63;2.47;;;11.10;77.30;;;;;;5010516;28;20033;-76
2024/01/03 04:21:05;;;;;;;7.95;1.50;;;11.10;77.30;;;;;;5008063;28;20049;-71
2024/01/03 04:23:31;;;;;;;12.77;2.35;;;11.10;77.20;;;;;;5016918;28;20037;-74
2024/01/03 04:25:57;;;;;;;9.63;2.17;;;11.00;77.10;;;;;;5020997;28;20504;-72
2024/01/03 04:28:23;;;;;;;7.45;1.98;;;11.00;77.10;;;;;;5009410;28;20057;-72
2024/01/03 04:30:49;;;;;;;8.10;2.22;;;11.00;77.10;;;;;;5013405;28;20450;-74
2024/01/03 04:33:15;;;;;;;8.45;1.90;;;11.00;77.10;;;;;;5011730;28;20044;-73
2024/01/03 04:35:41;;;;;;;10.18;3.15;;;11.00;77.10;;;;;;5009656;28;20398;-75
2024/01/03 04:38:07;;;;;;;8.90;2.08;;;11.00;77.10;;;;;;5020818;28;20033;-74
2024/01/03 04:40:33;;;;;;;9.70;2.80;;;11.00;77.20;;;;;;4997565;28;20442;-77
2024/01/03 04:42:59;;;;;;;7.05;2.00;;;11.00;77.20;;;;;;5023340;28;20042;-74
2024/01/03 04:45:25;;;;;;;4.70;1.45;;;11.00;77.20;;;;;;5036500;28;20213;-75
2024/01/03 04:47:51;;;;;;;9.18;2.35;;;11.00;77.20;;;;;;5040332;28;20065;-75
2024/01/03 04:50:17;;;;;;;6.63;2.20;;;11.00;77.20;;;;;;5037385;28;20026;-75
2024/01/03 04:52:44;;;;;;;7.15;1.80;;;11.00;77.30;;;;;;5041633;28;20242;-76
2024/01/03 04:55:10;;;;;;;7.68;2.17;;;11.00;77.30;;;;;;5030970;28;20041;-74
2024/01/03 04:57:36;;;;;;;9.43;1.60;;;11.00;77.30;;;;;;5035918;28;20438;-77
2024/01/03 05:00:07;;;;;;;9.73;1.85;;;11.00;77.20;;;;;;5027172;28;20129;-77
2024/01/03 05:02:35;;;;;;;11.50;2.28;;;11.00;77.30;;;;;;5018500;28;20033;-75
2024/01/03 05:05:01;;;;;;;13.02;2.30;;;11.00;77.20;;;;;;5016660;28;20029;-76
2024/01/03 05:07:27;;;;;;;10.13;2.78;;;11.00;77.20;;;;;;5017785;28;20064;-76
2024/01/03 05:09:53;;;;;;;8.73;2.15;;;11.00;77.20;;;;;;5006629;28;20381;-77
2024/01/03 05:12:26;;;;;;;;;;;11.00;77.10;;;;;;5011757;28;20077;-79
2024/01/03 05:14:52;;;;;;;10.70;2.45;;;11.00;77.10;;;;;;5018280;28;20387;-79
2024/01/03 05:17:19;;;;;;;10.30;2.55;;;11.00;77.10;;;;;;5016610;28;20034;-79
2024/01/03 05:19:45;;;;;;;9.95;2.40;;;10.90;76.90;;;;;;5021006;28;20026;-74
2024/01/03 05:22:10;;;;;;;12.57;2.70;;;11.00;77.10;;;;;;5004922;28;20037;-77
2024/01/03 05:24:36;;;;;;;13.52;2.30;;;10.90;77.00;;;;;;5021323;28;20493;-79
2024/01/03 05:27:02;;;;;;;10.98;2.85;;;10.90;77.00;;;;;;5020307;28;20519;-79
2024/01/03 05:29:29;;;;;;;9.68;2.40;;;10.90;77.10;;;;;;5008622;28;20018;-79
2024/01/03 05:31:55;;;;;;;13.13;2.55;;;10.90;77.10;;;;;;5012211;28;20038;-75
2024/01/03 05:34:22;;;;;;;13.85;2.33;;;10.90;77.10;;;;;;5015639;28;20049;-74
2024/01/03 05:36:49;;;;;;;12.15;2.72;;;10.90;77.10;;;;;;5006990;28;20044;-75
2024/01/03 05:39:15;;;;;;;9.73;3.05;;;10.90;77.10;;;;;;5019325;28;20041;-75
2024/01/03 05:41:42;;;;;;;11.15;2.60;;;10.90;77.20;;;;;;5013559;28;20037;-76
2024/01/03 05:44:09;;;;;;;11.68;2.50;;;10.90;77.20;;;;;;5015918;28;20108;-80
2024/01/03 05:46:38;;;;;;;11.35;2.88;;;10.90;77.20;;;;;;5013047;28;20049;-79
2024/01/03 05:49:05;;;;;;;8.95;2.53;;;10.90;77.20;;;;;;5012120;28;20033;-79
2024/01/03 05:51:32;;;;;;;9.60;2.13;;;10.90;77.30;;;;;;5007778;28;20485;-80
2024/01/03 05:53:59;;;;;;;11.52;2.85;;;10.90;77.30;;;;;;5009784;28;20045;-78
2024/01/03 05:56:25;;;;;;;9.40;1.90;;;10.90;77.30;;;;;;5010861;28;20030;-80
2024/01/03 05:58:51;;;;;;;11.02;3.25;;;10.90;77.30;;;;;;5013260;28;20080;-75
2024/01/03 06:01:17;;;;;;;12.55;2.38;;;10.90;77.30;;;;;;5006923;28;20053;-81
2024/01/03 06:03:43;;;;;;;12.48;2.90;;;10.90;77.30;;;;;;5016785;28;20567;-80
2024/01/03 06:06:10;;;;;;;11.68;3.08;;;10.90;77.30;;;;;;5014675;28;20025;-78
2024/01/03 06:08:36;;;;;;;13.52;2.95;;;10.90;77.60;;;;;;5007312;28;20029;-72
2024/01/03 06:11:03;;;;;;;12.15;2.95;;;10.90;77.30;;;;;;5010439;28;20955;-75
2024/01/03 06:13:29;;;;;;;12.15;3.22;;;10.90;77.30;;;;;;5005889;28;20500;-76
2024/01/03 06:15:55;;;;;;;12.55;2.90;;;10.80;77.20;;;;;;5011971;28;20033;-76
2024/01/03 06:18:21;;;;;;;13.68;2.72;;;10.90;77.40;;;;;;5008635;28;20014;-75
2024/01/03 06:20:47;;;;;;;11.65;2.70;;;10.90;77.40;;;;;;5016228;28;20509;-77
2024/01/03 06:23:13;;;;;;;10.02;2.08;;;10.90;77.40;;;;;;5016415;28;20030;-77
2024/01/03 06:25:40;;;;;;;9.77;2.67;;;10.90;77.30;;;;;;5016212;28;20033;-81
2024/01/03 06:28:05;;;;;;;10.23;2.20;;;10.90;77.40;;;;;;5006317;28;20096;-79
2024/01/03 06:30:31;;;;;;;10.98;2.70;;;10.90;77.30;;;;;;5007134;28;20564;-73
2024/01/03 06:32:57;;;;;;;8.75;2.20;;;10.80;77.10;;;;;;5007228;28;20037;-74
2024/01/03 06:35:23;;;;;;;4.93;1.33;;;10.80;77.10;;;;;;5011827;28;20022;-75
2024/01/03 06:37:50;;;;;;;9.40;1.60;;;10.90;77.40;;;;;;5005961;28;20041;-77
2024/01/03 06:40:16;;;;;;;8.93;1.65;;;10.80;77.50;;;;;;5005233;28;20030;-76
2024/01/03 06:42:42;;;;;;;6.43;1.63;;;10.90;77.70;;;;;;5013635;28;20493;-73
2024/01/03 06:45:08;;;;;;;6.15;1.67;;;10.90;77.70;;;;;;5014163;28;20064;-76
2024/01/03 06:47:34;;;;;;;6.70;1.25;;;10.90;77.60;;;;;;5014908;28;20057;-71
2024/01/03 06:50:00;;;;;;;8.10;1.90;;;10.90;77.60;;;;;;5017006;28;20032;-80
2024/01/03 06:52:26;;;;;;;6.75;2.53;;;10.90;77.60;;;;;;5011017;28;20596;-77
2024/01/03 06:54:54;;;;;;;6.10;1.80;;;10.90;77.60;;;;;;5012395;28;20041;-78
2024/01/03 06:57:19;;;;;;;5.30;1.23;;;10.90;77.60;;;;;;5011228;28;20033;-76
2024/01/03 06:59:45;;;;;;;8.25;1.55;;;10.90;77.60;;;;;;5004352;28;20100;-76
2024/01/03 07:02:12;;;;;;;8.45;1.67;;;10.90;77.60;;;;;;5013333;28;20103;-76
2024/01/03 07:04:38;;;;;;;6.40;1.52;;;10.80;77.50;;;;;;5007416;28;20036;-77
2024/01/03 07:07:04;;;;;;;7.18;1.60;;;10.80;77.50;;;;;;5010993;28;20197;-77
2024/01/03 07:09:30;;;;;;;8.68;1.80;;;10.80;77.50;;;;;;5006783;28;20084;-72
2024/01/03 07:11:58;;;;;;;10.95;2.50;;;10.80;77.50;;;;;;5003720;28;20631;-74
2024/01/03 07:14:23;;;;;;;6.80;2.50;;;10.80;77.50;;;;;;5012487;28;20687;-74
2024/01/03 07:16:49;;;;;;;9.73;2.00;;;10.80;77.50;;;;;;4998228;28;20033;-74
2024/01/03 07:19:15;;;;;;;13.02;2.67;;;10.70;77.30;;;;;;5014249;28;20362;-75
2024/01/03 07:21:41;;;;;;;6.88;1.90;;;10.80;77.60;;;;;;5006639;28;20041;-77
2024/01/03 07:24:08;;;;;;;5.85;1.85;;;10.80;77.60;;;;;;4999154;28;20612;-76
2024/01/03 07:26:34;;;;;;;11.05;1.63;;;10.70;77.40;;;;;;5005269;28;20033;-76
2024/01/03 07:29:00;;;;;;;8.50;1.88;;;10.70;77.40;;;;;;5005692;28;20474;-73
2024/01/03 07:31:27;;;;;;;9.05;2.13;;;10.70;77.40;;;;;;5007361;28;20032;-78
2024/01/03 07:33:53;;;;;;;9.48;2.17;;;10.70;77.40;;;;;;5004382;28;20465;-71
2024/01/03 07:36:19;;;;;;;8.98;1.80;;;10.80;77.60;;;;;;5008181;28;20066;-73
2024/01/03 07:38:45;;;;;;;8.32;2.45;;;10.70;77.40;;;;;;5006133;28;20026;-72
2024/01/03 07:41:11;;;;;;;12.10;2.22;;;10.70;77.50;;;;;;5009318;28;20367;-79
2024/01/03 07:43:37;;;;;;;11.63;2.47;;;10.70;77.40;;;;;;5006961;28;20026;-77
2024/01/03 07:46:03;;;;;;;8.05;2.53;;;10.70;77.40;;;;;;5001512;28;20045;-73
2024/01/03 07:48:29;;;;;;;6.38;1.73;;;10.70;77.50;;;;;;5002041;28;20033;-73
2024/01/03 07:50:55;;;;;;;11.73;2.88;;;10.70;77.40;;;;;;5004988;28;20037;-76
2024/01/03 07:53:21;;;;;;;10.48;3.25;;;10.70;77.40;;;;;;5012988;28;20401;-74
2024/01/03 07:55:47;;;;;;;8.20;1.88;;;10.70;77.40;;;;;;5006051;28;20029;-76
2024/01/03 07:58:13;;;;;;;8.15;2.20;;;10.70;77.40;;;;;;5014974;28;20315;-74
2024/01/03 08:00:39;;;;;;;7.40;2.42;;;10.70;77.40;;;;;;5004544;28;20548;-75
2024/01/03 08:03:05;;;;;;;11.05;2.65;;;10.70;77.40;;;;;;5006874;28;20041;-72
2024/01/03 08:05:31;;;;;;;6.88;2.10;;;10.70;77.40;;;;;;5008149;28;20465;-76
2024/01/03 08:07:58;;;;;;;7.70;2.00;;;10.70;77.40;;;;;;5008879;28;20026;-74
2024/01/03 08:10:27;;;;;;;6.25;2.40;;;10.70;77.40;;;;;;5006107;28;20029;-76
2024/01/03 08:12:53;;;;;;;6.13;2.17;;;10.70;77.50;;;;;;5013742;28;20033;-73
2024/01/03 08:15:19;;;;;;;7.65;1.63;;;10.70;77.50;;;;;;5014538;28;20030;-76
2024/01/03 08:17:51;;;;;;;4.55;1.13;;;10.60;77.20;;;;;;5008591;28;20037;-75
2024/01/03 08:20:17;;;;;;;5.80;1.83;;;10.60;77.20;;;;;;5010990;28;20033;-72
2024/01/03 08:22:43;;;;;;;3.58;1.48;;;10.60;77.20;;;;;;5006595;28;20398;-73
2024/01/03 08:25:10;;;;;;;5.68;2.03;;;10.60;77.20;;;;;;5006598;28;20033;-73
2024/01/03 08:27:38;;;;;;;4.30;1.10;;;10.60;77.20;;;;;;5009013;28;20037;-71
2024/01/03 08:30:05;;;;;;;3.13;0.95;;;10.60;77.20;;;;;;5001029;28;20025;-71
2024/01/03 08:32:31;;;;;;;5.53;1.10;;;10.60;77.60;;;;;;5007775;28;20030;-71
2024/01/03 08:34:58;;;;;;;4.97;1.20;;;10.60;77.10;;;;;;5011851;28;20099;-75
2024/01/03 08:37:24;;;;;;;4.95;0.60;;;10.60;77.10;;;;;;5010505;28;20036;-75
2024/01/03 08:39:50;;;;;;;4.93;1.15;;;10.60;77.10;;;;;;5016181;28;20029;-75
2024/01/03 08:42:16;;;;;;;4.85;1.08;;;10.60;77.00;;;;;;5005131;28;20045;-75
2024/01/03 08:44:42;;;;;;;7.53;1.20;;;10.60;77.00;;;;;;5006647;28;20433;-72
2024/01/03 08:47:08;;;;;;;6.13;1.10;;;10.60;76.90;;;;;;5002271;28;20414;-75
2024/01/03 08:49:34;;;;;;;4.93;0.80;;;10.60;76.90;;;;;;5008410;28;20033;-75
2024/01/03 08:52:01;;;;;;;4.93;1.48;;;10.60;76.90;;;;;;5012618;28;20389;-72
2024/01/03 08:54:28;;;;;;;5.70;1.05;;;10.60;76.90;;;;;;4990645;28;20310;-72
2024/01/03 08:56:55;;;;;;;3.55;0.90;;;10.60;76.90;;;;;;5011584;28;20107;-73
2024/01/03 08:59:21;;;;;;;6.30;1.40;;;10.60;76.90;;;;;;5003517;28;20485;-73
2024/01/03 09:01:51;;;;;;;6.78;1.33;;;10.60;76.90;;;;;;5009211;28;20095;-72
2024/01/03 09:04:18;;;;;;;2.63;0.85;;;10.50;76.70;;;;;;4991419;28;20065;-74
2024/01/03 09:06:44;;;;;;;4.72;1.20;;;10.50;76.70;;;;;;5005221;28;20066;-74
2024/01/03 09:09:10;;;;;;;3.35;1.08;;;10.60;76.90;;;;;;5013925;28;20037;-73
2024/01/03 09:11:36;;;;;;;3.78;0.90;;;10.50;76.80;;;;;;5008376;28;20026;-74
2024/01/03 09:14:02;;;;;;;4.32;1.50;;;10.50;76.80;;;;;;5005531;28;20117;-75
2024/01/03 09:16:30;;;;;;;6.32;1.17;;;10.50;76.80;;;;;;5007402;28;20121;-74
2024/01/03 09:18:56;;;;;;;5.95;0.95;;;10.60;76.90;;;;;;5010462;28;20608;-76
2024/01/03 09:21:22;;;;;;;3.72;0.90;;;10.50;76.70;;;;;;5007079;28;20034;-73
2024/01/03 09:23:50;;;;;;;3.38;1.08;;;10.50;76.70;;;;;;5011078;28;20064;-75
2024/01/03 09:26:20;;;;;;;2.95;0.77;;;10.50;76.70;;;;;;5010204;28;20043;-72
2024/01/03 09:28:47;;;;;;;4.15;0.90;;;10.60;76.90;;;;;;5009530;28;20555;-72
2024/01/03 09:31:14;;;;;;;5.35;0.98;;;10.60;76.90;;;;;;5004470;28;20062;-75
2024/01/03 09:33:40;;;;;;;5.75;0.80;;;10.60;77.00;;;;;;5004710;28;20030;-78
2024/01/03 09:36:19;;;;;;;8.20;0.93;;;10.60;77.00;;;;;;5008872;28;20045;-76
2024/01/03 09:38:47;;;;;;;4.93;1.33;;;10.70;77.20;;;;;;5005823;28;20524;-75
2024/01/03 09:41:13;;;;;;;6.38;1.77;;;10.70;77.10;;;;;;5007334;28;20271;-73
2024/01/03 09:43:43;;;;;;;3.47;0.98;;;10.80;77.10;;;;;;5010228;28;20029;-73
2024/01/03 09:46:12;;;;;;;3.40;0.73;;;10.80;77.00;;;;;;5010906;28;20049;-75
2024/01/03 09:48:40;;;;;;;6.78;0.82;;;10.80;76.90;;;;;;5018688;28;20080;-72
2024/01/03 09:51:07;;;;;;;5.03;1.02;;;10.90;77.10;;;;;;5014038;28;20037;-73
2024/01/03 09:53:35;;;;;;;6.47;1.00;;;10.90;77.00;;;;;;5023871;28;20033;-72
2024/01/03 09:56:01;;;;;;;6.07;1.67;;;10.90;77.00;;;;;;5023748;28;20116;-75
2024/01/03 09:58:28;;;;;;;7.25;1.40;;;10.90;77.00;;;;;;5015505;28;20026;-73
2024/01/03 10:00:55;;;;;;;5.57;1.20;;;10.90;77.00;;;;;;5009478;28;20480;-75
2024/01/03 10:03:21;;;;;;;5.35;1.27;;;10.90;77.00;;;;;;5011313;28;20323;-78
2024/01/03 10:06:04;;;;;;;7.07;2.30;;;10.90;77.00;;;;;;5007639;28;20034;-77
2024/01/03 10:08:31;;;;;;;5.35;1.10;;;10.90;77.00;;;;;;5006429;28;20060;-77
2024/01/03 10:10:57;;;;;;;6.85;1.50;;;10.90;77.00;;;;;;5004845;28;20061;-78
2024/01/03 10:13:29;;;;;;;7.65;1.27;;;10.90;77.00;;;;;;5007774;28;20366;-77
2024/01/03 10:16:02;;;;;;;6.45;2.03;;;11.00;77.20;;;;;;5003777;28;20036;-78
2024/01/03 10:18:28;;;;;;;12.00;2.17;;;11.00;77.10;;;;;;5002305;28;20156;-73
2024/01/03 10:21:11;;;;;;;8.80;1.95;;;11.00;77.10;;;;;;5006526;28;20606;-77
2024/01/03 10:23:37;;;;;;;10.35;1.83;;;11.00;77.10;;;;;;5008513;28;20029;-76
2024/01/03 10:26:03;;;;;;;7.93;1.75;;;11.00;77.10;;;;;;5005622;28;20045;-75
2024/01/03 10:28:29;;;;;;;8.50;2.45;;;11.00;77.10;;;;;;5010223;28;20045;-75
2024/01/03 10:30:57;;;;;;;11.57;2.55;;;11.00;77.10;;;;;;5009428;28;20033;-76
2024/01/03 10:33:23;;;;;;;6.43;1.65;;;11.00;77.10;;;;;;5010060;28;20080;-73
2024/01/03 10:35:49;;;;;;;8.60;1.75;;;11.00;77.10;;;;;;5000444;28;20030;-76
2024/01/03 10:38:17;;;;;;;6.03;1.42;;;11.00;77.20;;;;;;5008701;28;20504;-75
2024/01/03 10:40:44;;;;;;;4.95;1.75;;;11.10;77.40;;;;;;5009165;28;20406;-74
2024/01/03 10:43:11;;;;;;;5.47;1.05;;;11.10;77.40;;;;;;5001779;28;20494;-73
2024/01/03 10:45:37;;;;;;;3.63;1.08;;;11.10;77.40;;;;;;4997290;28;20485;-73
2024/01/03 10:48:03;;;;;;;4.55;1.30;;;11.10;77.30;;;;;;5010548;28;20096;-73
2024/01/03 10:50:29;;;;;;;9.65;2.38;;;11.20;77.50;;;;;;5016010;28;20037;-73
2024/01/03 10:52:57;;;;;;;4.05;1.88;;;11.20;77.40;;;;;;5005881;28;20029;-73
2024/01/03 10:55:38;;;;;;;8.00;1.30;;;11.30;77.50;;;;;;5000822;28;20033;-71
2024/01/03 10:58:14;;;;;;;5.82;1.27;;;11.30;77.30;;;;;;5005131;28;20481;-74
2024/01/03 11:00:53;;;;;;;3.92;0.98;;;11.30;77.30;;;;;;5007936;28;20033;-73
2024/01/03 11:03:39;;;;;;;5.35;1.23;;;11.30;77.10;;;;;;5006898;28;20548;-77
2024/01/03 11:06:19;;;;;;;6.80;1.02;;;11.30;77.10;;;;;;5010399;28;20053;-77
2024/01/03 11:08:54;;;;;;;4.75;1.13;;;11.30;77.10;;;;;;5010763;28;20033;-73
2024/01/03 11:11:29;;;;;;;6.35;1.45;;;11.30;77.10;;;;;;5012562;28;20072;-77
2024/01/03 11:13:57;;;;;;;4.18;1.00;;;11.30;77.10;;;;;;5006240;28;20069;-78
2024/01/03 11:16:37;;;;;;;5.15;1.25;;;11.30;77.10;;;;;;5014934;28;20049;-77
2024/01/03 11:19:04;;;;;;;4.15;1.38;;;11.30;77.10;;;;;;5007099;28;20377;-76
2024/01/03 11:21:35;;;;;;;5.63;1.27;;;11.30;77.10;;;;;;5017500;28;20052;-79
2024/01/03 11:24:02;;;;;;;5.82;1.50;;;11.30;77.10;;;;;;5013508;28;20030;-76
2024/01/03 11:29:35;;;;;;;2.78;1.50;;;11.30;77.10;;;;;;5008811;28;20359;-79
2024/01/03 11:32:05;;;;;;;5.45;1.75;;;11.30;77.60;;;;;;5012897;28;20041;-76
2024/01/03 11:34:48;;;;;;;6.82;1.40;;;11.40;77.20;;;;;;5008270;28;20036;-77
2024/01/03 11:37:18;;;;;;;4.38;1.35;;;11.40;77.20;;;;;;5031147;28;20026;-73
2024/01/03 11:39:50;;;;;;;9.77;1.38;;;11.50;77.20;;;;;;5008890;28;20208;-75
2024/01/03 11:42:20;;;;;;;6.38;1.58;;;11.50;77.10;;;;;;5027809;28;20307;-78
2024/01/03 11:45:05;;;;;;;6.07;1.60;;;11.60;77.20;;;;;;5006940;28;20034;-77
2024/01/03 11:47:33;;;;;;;6.45;1.10;;;11.60;77.10;;;;;;5013015;28;20060;-79
2024/01/03 11:50:03;;;;;;;11.30;2.13;;;11.70;77.20;;;;;;5016293;28;20033;-73
2024/01/03 11:52:32;;;;;;;5.43;1.63;;;11.70;77.10;;;;;;5004155;28;20991;-77
2024/01/03 11:55:24;;;;;;;6.28;2.55;;;11.70;77.20;;;;;;5009585;28;20120;-78
2024/01/03 11:57:51;;;;;;;6.80;2.00;;;11.80;77.30;;;;;;5008125;28;20437;-77
2024/01/03 12:00:21;;;;;;;5.60;1.23;;;11.80;77.20;;;;;;5017783;28;20052;-76
2024/01/03 12:02:56;;;;;;;9.57;2.42;;;11.80;77.20;;;;;;5014940;28;20045;-77
2024/01/03 12:05:25;;;;;;;13.23;2.92;;;11.80;77.20;;;;;;5005368;28;20069;-78
2024/01/03 12:07:53;;;;;;;6.30;1.90;;;11.80;77.20;;;;;;5018387;28;20025;-75
2024/01/03 12:10:20;;;;;;;9.68;2.20;;;11.80;77.20;;;;;;5005182;28;20599;-77
2024/01/03 12:12:48;;;;;;;8.23;1.65;;;11.80;77.20;;;;;;5006012;28;20455;-74
2024/01/03 12:15:26;;;;;;;7.55;1.75;;;11.80;77.20;;;;;;4989895;28;20125;-74
2024/01/03 12:17:52;;;;;;;7.32;1.73;;;11.90;77.40;;;;;;5007982;28;20044;-72
2024/01/03 12:20:20;;;;;;;11.30;1.90;;;11.90;77.30;;;;;;5008624;28;20033;-77
2024/01/03 12:22:47;;;;;;;7.00;2.17;;;11.90;77.30;;;;;;5009009;28;20037;-76
2024/01/03 12:25:31;;;;;;;10.63;2.70;;;12.00;77.40;;;;;;5014478;28;20520;-72
2024/01/03 12:27:57;;;;;;;8.07;2.38;;;12.00;77.40;;;;;;5011274;28;20437;-76
2024/01/03 12:30:24;;;;;;;8.02;2.60;;;12.00;77.30;;;;;;5005433;28;20026;-78
2024/01/03 12:33:04;;;;;;;7.97;1.73;;;12.10;77.40;;;;;;5014330;28;20025;-72
2024/01/03 12:35:31;;;;;;;10.27;2.67;;;12.10;77.30;;;;;;5007164;28;20486;-71
2024/01/03 12:37:57;;;;;;;11.90;2.63;;;12.20;77.40;;;;;;5012975;28;20041;-76
2024/01/03 12:40:24;;;;;;;12.40;2.17;;;12.20;77.30;;;;;;5005228;28;20286;-74
2024/01/03 12:42:50;;;;;;;10.35;1.83;;;12.30;77.40;;;;;;5015781;28;20034;-73
2024/01/03 12:45:16;;;;;;;8.77;2.03;;;12.30;77.30;;;;;;5012091;28;20388;-73
2024/01/03 12:47:42;;;;;;;11.43;1.90;;;12.30;77.20;;;;;;5011898;28;20066;-72
2024/01/03 12:50:09;;;;;;;11.50;2.85;;;12.30;77.10;;;;;;5013352;28;20506;-72